Silverhill, AL (36576)

8:09 AM CST on November 24, 2014 (GMT -0600)
County Road 48 West | Change Station
CLOSE
Current Station
Personal Weather Station
Location: Robertsdale, AL
Elevation: 85 ft
Nearby Weather Stations
Active Advisory: Coastal Hazard Statement

Elev 85 ft 30.53 °N, 87.73 °W | Updated 1 second ago

Overcast
Overcast
67.8 °F
Feels Like 67.8 °F
N
0.0
Wind Variable Wind from NW
Gusts 3.1 mph

Today
High -- | Low -- °F
--% Chance of Precip.
Yesterday
High -- | Low -- °F
Precip. -- in
6:24 AM 4:50 PM
Waxing Crescent, 5% visible
Pressure 29.84 in
Visibility 5.0 miles
Clouds Scattered Clouds 300 ft
Mostly Cloudy 1100 ft
Dew Point 68 °F
Humidity 100%
Rainfall 0.00 in
Snow Depth Not available.
UV 1 out of 12
Pollen 3.40 out of 12
Air Quality Not available.
Flu Activity Not available.
METAR KCQF 241355Z AUTO 23004KT 5SM BR SCT003 BKN011 18/18 A2984 RMK AO2

More Conditions Fewer Conditions

Pressure 29.84 in
Visibility 5.0 miles
Clouds Scattered Clouds 300 ft
Mostly Cloudy 1100 ft
Dew Point 68 °F
Humidity 100%
Rainfall 0.00 in
Snow Depth Not available.
UV 1 out of 12
Pollen 3.40 out of 12
Air Quality Not available.
Flu Activity Not available.
METAR KCQF 241355Z AUTO 23004KT 5SM BR SCT003 BKN011 18/18 A2984 RMK AO2

More Conditions Fewer Conditions

10-Day Weather Forecast

Almanac

Astronomy

Nov. 24, 2014 Rise Set
Actual Time
Civil Twilight
Nautical Twilight
Astronomical Twilight
Moon
Length of Visible Light
Length of Day
Tomorrow will be .
, % of the Moon is Illuminated

Today's Extremes

State Highs State Lows

Community

WunderPhotos

Upload Photos

1,773,332 photos uploaded!

WunderBlogs® & News

Nearby

Air Quality

  Air Quality AQ Index Pollutant
Not available.

Snow Depth

Station Depth Elevation

Earthquake Activity

City Distance Mag. Time & Date
Minimum magnitude displayed is 2.5.

Coastal Water Temperatures

Place Temperature

Nearby Weather Stations